createdAt,value
2023-02-05T00:00:16.177Z,1035.18
2023-02-05T00:01:16.164Z,1035.19
2023-02-05T00:02:16.173Z,1035.19
2023-02-05T00:03:16.193Z,1035.19
2023-02-05T00:04:16.178Z,1035.19
2023-02-05T00:05:16.135Z,1035.20
2023-02-05T00:06:16.121Z,1035.21
2023-02-05T00:07:16.149Z,1035.22
2023-02-05T00:08:16.092Z,1035.20
2023-02-05T00:09:16.117Z,1035.22
2023-02-05T00:10:16.075Z,1035.25
2023-02-05T00:11:16.072Z,1035.25
2023-02-05T00:12:16.055Z,1035.25
2023-02-05T00:13:16.043Z,1035.25
2023-02-05T00:14:16.054Z,1035.25
2023-02-05T00:15:16.059Z,1035.25
2023-02-05T00:16:16.135Z,1035.25
2023-02-05T00:17:16.070Z,1035.24
2023-02-05T00:18:15.995Z,1035.23
2023-02-05T00:19:15.983Z,1035.24
2023-02-05T00:20:16.116Z,1035.24
2023-02-05T00:21:15.984Z,1035.25
2023-02-05T00:22:15.972Z,1035.26
2023-02-05T00:23:15.985Z,1035.26
2023-02-05T00:24:15.938Z,1035.25
2023-02-05T00:25:15.925Z,1035.25
2023-02-05T00:26:15.921Z,1035.24
2023-02-05T00:27:15.930Z,1035.24
2023-02-05T00:28:15.950Z,1035.23
2023-02-05T00:29:15.898Z,1035.22
2023-02-05T00:30:15.865Z,1035.22
2023-02-05T00:31:16.253Z,1035.20
2023-02-05T00:32:15.895Z,1035.19
2023-02-05T00:33:15.856Z,1035.17
2023-02-05T00:34:15.906Z,1035.15
2023-02-05T00:35:15.819Z,1035.14
2023-02-05T00:36:15.828Z,1035.14
2023-02-05T00:37:15.825Z,1035.13
2023-02-05T00:38:15.787Z,1035.14
2023-02-05T00:39:15.825Z,1035.14
2023-02-05T00:40:15.793Z,1035.12
2023-02-05T00:41:15.756Z,1035.10
2023-02-05T00:42:15.745Z,1035.08
2023-02-05T00:43:15.749Z,1035.07
2023-02-05T00:44:15.746Z,1035.08
2023-02-05T00:45:22.784Z,1035.09
2023-02-05T00:46:15.820Z,1035.11
2023-02-05T00:47:15.696Z,1035.12
2023-02-05T00:48:15.700Z,1035.13
2023-02-05T00:49:15.679Z,1035.11
2023-02-05T00:50:15.657Z,1035.11
2023-02-05T00:51:15.659Z,1035.11
2023-02-05T00:52:15.680Z,1035.09
2023-02-05T00:53:15.648Z,1035.07
2023-02-05T00:54:15.647Z,1035.06
2023-02-05T00:55:15.614Z,1035.05
2023-02-05T00:56:15.690Z,1035.05
2023-02-05T00:57:15.605Z,1035.05
2023-02-05T00:58:15.587Z,1035.04
2023-02-05T00:59:15.590Z,1035.02
2023-02-05T01:00:15.572Z,1035.01
2023-02-05T01:01:15.819Z,1034.99
2023-02-05T01:02:15.596Z,1034.95
2023-02-05T01:03:15.549Z,1034.95
2023-02-05T01:04:15.544Z,1034.94
2023-02-05T01:05:15.519Z,1034.92
2023-02-05T01:06:15.512Z,1034.92
2023-02-05T01:07:15.504Z,1034.92
2023-02-05T01:08:15.493Z,1034.91
2023-02-05T01:09:15.509Z,1034.89
2023-02-05T01:10:15.479Z,1034.87
2023-02-05T01:11:15.464Z,1034.87
2023-02-05T01:12:15.468Z,1034.86
2023-02-05T01:13:17.794Z,1034.85
2023-02-05T01:14:15.463Z,1034.82
2023-02-05T01:15:15.438Z,1034.78
2023-02-05T01:16:15.494Z,1034.76
2023-02-05T01:17:15.403Z,1034.73
2023-02-05T01:18:15.416Z,1034.73
2023-02-05T01:19:15.444Z,1034.73
2023-02-05T01:20:15.374Z,1034.72
2023-02-05T01:21:15.420Z,1034.70
2023-02-05T01:22:15.370Z,1034.68
2023-02-05T01:23:15.589Z,1034.65
2023-02-05T01:24:15.347Z,1034.61
2023-02-05T01:25:15.349Z,1034.59
2023-02-05T01:26:15.320Z,1034.58
2023-02-05T01:27:15.309Z,1034.56
2023-02-05T01:28:15.323Z,1034.54
2023-02-05T01:29:15.306Z,1034.51
2023-02-05T01:30:15.320Z,1034.49
2023-02-05T01:31:15.362Z,1034.49
2023-02-05T01:32:15.262Z,1034.48
2023-02-05T01:33:15.273Z,1034.49
2023-02-05T01:34:15.255Z,1034.52
2023-02-05T01:35:15.245Z,1034.55
2023-02-05T01:36:15.223Z,1034.59
2023-02-05T01:37:15.210Z,1034.60
2023-02-05T01:38:15.201Z,1034.60
2023-02-05T01:39:15.226Z,1034.59
2023-02-05T01:40:15.184Z,1034.57
2023-02-05T01:41:15.207Z,1034.53
2023-02-05T01:42:15.159Z,1034.49
2023-02-05T01:43:15.194Z,1034.45
2023-02-05T01:44:15.157Z,1034.44
2023-02-05T01:45:15.131Z,1034.45
2023-02-05T01:46:15.157Z,1034.48
2023-02-05T01:47:15.170Z,1034.52
2023-02-05T01:48:15.093Z,1034.55
2023-02-05T01:49:15.113Z,1034.55
2023-02-05T01:50:15.067Z,1034.54
2023-02-05T01:51:15.092Z,1034.51
2023-02-05T01:52:15.060Z,1034.47
2023-02-05T01:53:15.057Z,1034.44
2023-02-05T01:54:15.059Z,1034.40
2023-02-05T01:55:15.037Z,1034.39
2023-02-05T01:56:15.017Z,1034.39
2023-02-05T01:57:15.000Z,1034.39
2023-02-05T01:58:14.991Z,1034.41
2023-02-05T01:59:14.997Z,1034.39
2023-02-05T02:00:14.972Z,1034.39
2023-02-05T02:01:15.001Z,1034.37
2023-02-05T02:02:14.973Z,1034.34
2023-02-05T02:03:14.944Z,1034.32
2023-02-05T02:04:14.944Z,1034.30
2023-02-05T02:05:14.972Z,1034.28
2023-02-05T02:06:14.910Z,1034.26
2023-02-05T02:07:14.913Z,1034.24
2023-02-05T02:08:14.909Z,1034.24
2023-02-05T02:09:14.926Z,1034.26
2023-02-05T02:10:14.913Z,1034.27
2023-02-05T02:11:14.868Z,1034.26
2023-02-05T02:12:14.868Z,1034.24
2023-02-05T02:13:14.860Z,1034.22
2023-02-05T02:14:14.854Z,1034.19
2023-02-05T02:15:14.836Z,1034.15
2023-02-05T02:16:14.875Z,1034.12
2023-02-05T02:17:14.815Z,1034.10
2023-02-05T02:18:14.836Z,1034.08
2023-02-05T02:19:14.802Z,1034.04
2023-02-05T02:20:14.786Z,1034.02
2023-02-05T02:21:14.774Z,1033.99
2023-02-05T02:22:14.774Z,1033.98
2023-02-05T02:23:14.769Z,1033.97
2023-02-05T02:24:14.773Z,1033.96
2023-02-05T02:25:14.740Z,1033.95
2023-02-05T02:26:14.726Z,1033.94
2023-02-05T02:27:14.753Z,1033.93
2023-02-05T02:28:14.794Z,1033.92
2023-02-05T02:29:14.703Z,1033.92
2023-02-05T02:30:14.712Z,1033.94
2023-02-05T02:31:14.756Z,1033.96
2023-02-05T02:32:14.693Z,1033.97
2023-02-05T02:33:14.680Z,1033.96
2023-02-05T02:34:14.655Z,1033.96
2023-02-05T02:35:14.652Z,1033.95
2023-02-05T02:36:14.626Z,1033.95
2023-02-05T02:37:14.629Z,1033.94
2023-02-05T02:38:14.684Z,1033.91
2023-02-05T02:39:14.593Z,1033.87
2023-02-05T02:40:14.637Z,1033.83
2023-02-05T02:41:14.575Z,1033.79
2023-02-05T02:42:14.568Z,1033.77
2023-02-05T02:43:14.606Z,1033.75
2023-02-05T02:44:14.572Z,1033.72
2023-02-05T02:45:14.586Z,1033.70
2023-02-05T02:46:14.569Z,1033.69
2023-02-05T02:47:14.510Z,1033.71
2023-02-05T02:48:14.522Z,1033.71
2023-02-05T02:49:14.500Z,1033.71
2023-02-05T02:50:14.553Z,1033.72
2023-02-05T02:51:14.485Z,1033.74
2023-02-05T02:52:14.481Z,1033.74
2023-02-05T02:53:14.474Z,1033.74
2023-02-05T02:54:14.482Z,1033.73
2023-02-05T02:55:14.470Z,1033.74
2023-02-05T02:56:14.445Z,1033.75
2023-02-05T02:57:14.419Z,1033.76
2023-02-05T02:58:14.419Z,1033.78
2023-02-05T02:59:14.399Z,1033.80
2023-02-05T03:00:14.432Z,1033.80
2023-02-05T03:01:14.385Z,1033.81
2023-02-05T03:02:14.420Z,1033.79
2023-02-05T03:03:14.377Z,1033.78
2023-02-05T03:04:14.367Z,1033.77
2023-02-05T03:05:14.367Z,1033.78
2023-02-05T03:06:14.344Z,1033.78
2023-02-05T03:07:14.342Z,1033.79
2023-02-05T03:08:14.323Z,1033.81
2023-02-05T03:09:14.336Z,1033.82
2023-02-05T03:10:14.342Z,1033.83
2023-02-05T03:11:14.284Z,1033.82
2023-02-05T03:12:14.325Z,1033.83
2023-02-05T03:13:14.266Z,1033.84
2023-02-05T03:14:14.265Z,1033.84
2023-02-05T03:15:14.284Z,1033.85
2023-02-05T03:16:14.283Z,1033.85
2023-02-05T03:17:14.244Z,1033.84
2023-02-05T03:18:14.232Z,1033.81
2023-02-05T03:19:14.237Z,1033.77
2023-02-05T03:20:14.203Z,1033.75
2023-02-05T03:21:14.198Z,1033.74
2023-02-05T03:22:14.186Z,1033.74
2023-02-05T03:23:14.175Z,1033.73
2023-02-05T03:24:14.189Z,1033.72
2023-02-05T03:25:14.168Z,1033.73
2023-02-05T03:26:14.192Z,1033.75
2023-02-05T03:27:14.137Z,1033.76
2023-02-05T03:28:14.230Z,1033.77
2023-02-05T03:29:14.113Z,1033.76
2023-02-05T03:30:14.160Z,1033.76
2023-02-05T03:31:14.154Z,1033.76
2023-02-05T03:32:14.085Z,1033.78
2023-02-05T03:33:14.073Z,1033.79
2023-02-05T03:34:14.077Z,1033.80
2023-02-05T03:35:14.089Z,1033.82
2023-02-05T03:36:14.063Z,1033.83
2023-02-05T03:37:14.044Z,1033.84
2023-02-05T03:38:14.038Z,1033.85
2023-02-05T03:39:14.041Z,1033.83
2023-02-05T03:40:14.029Z,1033.83
2023-02-05T03:41:13.995Z,1033.82
2023-02-05T03:42:13.999Z,1033.81
2023-02-05T03:43:13.977Z,1033.80
2023-02-05T03:44:13.986Z,1033.79
2023-02-05T03:45:13.978Z,1033.79
2023-02-05T03:46:13.960Z,1033.77
2023-02-05T03:47:13.934Z,1033.77
2023-02-05T03:48:13.938Z,1033.77
2023-02-05T03:49:13.930Z,1033.78
2023-02-05T03:50:13.925Z,1033.78
2023-02-05T03:51:13.904Z,1033.79
2023-02-05T03:52:13.892Z,1033.80
2023-02-05T03:53:13.875Z,1033.81
2023-02-05T03:54:13.910Z,1033.82
2023-02-05T03:55:13.887Z,1033.85
2023-02-05T03:56:13.880Z,1033.87
2023-02-05T03:57:13.846Z,1033.88
2023-02-05T03:58:13.843Z,1033.87
2023-02-05T03:59:13.820Z,1033.84
2023-02-05T04:00:13.869Z,1033.82
2023-02-05T04:01:13.866Z,1033.81
2023-02-05T04:02:13.821Z,1033.80
2023-02-05T04:03:13.773Z,1033.81
2023-02-05T04:04:13.777Z,1033.84
2023-02-05T04:05:13.784Z,1033.87
2023-02-05T04:06:13.778Z,1033.90
2023-02-05T04:07:13.737Z,1033.92
2023-02-05T04:08:13.730Z,1033.93
2023-02-05T04:09:13.734Z,1033.94
2023-02-05T04:10:13.733Z,1033.95
2023-02-05T04:11:13.709Z,1033.98
2023-02-05T04:12:13.696Z,1034.01
2023-02-05T04:13:14.023Z,1034.02
2023-02-05T04:14:13.684Z,1034.02
2023-02-05T04:15:13.678Z,1034.03
2023-02-05T04:16:13.688Z,1034.06
2023-02-05T04:17:13.648Z,1034.08
2023-02-05T04:18:13.632Z,1034.10
2023-02-05T04:19:13.628Z,1034.11
2023-02-05T04:20:13.617Z,1034.12
2023-02-05T04:21:13.609Z,1034.13
2023-02-05T04:22:13.626Z,1034.13
2023-02-05T04:23:13.588Z,1034.14
2023-02-05T04:24:13.628Z,1034.15
2023-02-05T04:25:13.605Z,1034.16
2023-02-05T04:26:13.567Z,1034.16
2023-02-05T04:27:13.547Z,1034.17
2023-02-05T04:28:13.549Z,1034.17
2023-02-05T04:29:13.526Z,1034.17
2023-02-05T04:30:13.549Z,1034.17
2023-02-05T04:31:13.526Z,1034.16
2023-02-05T04:32:13.511Z,1034.15
2023-02-05T04:33:13.518Z,1034.15
2023-02-05T04:34:13.506Z,1034.15
2023-02-05T04:35:13.490Z,1034.15
2023-02-05T04:36:13.467Z,1034.14
2023-02-05T04:37:13.448Z,1034.11
2023-02-05T04:38:13.441Z,1034.08
2023-02-05T04:39:13.438Z,1034.04
2023-02-05T04:40:13.444Z,1034.03
2023-02-05T04:41:13.411Z,1034.01
2023-02-05T04:42:13.419Z,1033.98
2023-02-05T04:43:13.404Z,1033.96
2023-02-05T04:44:13.389Z,1033.95
2023-02-05T04:45:13.391Z,1033.94
2023-02-05T04:46:13.448Z,1033.93
2023-02-05T04:47:13.348Z,1033.93
2023-02-05T04:48:13.348Z,1033.94
2023-02-05T04:49:13.327Z,1033.94
2023-02-05T04:50:13.346Z,1033.95
2023-02-05T04:51:13.313Z,1033.98
2023-02-05T04:52:13.314Z,1033.99
2023-02-05T04:53:13.296Z,1033.98
2023-02-05T04:54:13.303Z,1033.95
2023-02-05T04:55:13.292Z,1033.93
2023-02-05T04:56:13.275Z,1033.93
2023-02-05T04:57:13.250Z,1033.92
2023-02-05T04:58:13.245Z,1033.91
2023-02-05T04:59:13.239Z,1033.91
2023-02-05T05:00:13.278Z,1033.91
2023-02-05T05:01:13.252Z,1033.90
2023-02-05T05:02:13.255Z,1033.86
2023-02-05T05:03:13.204Z,1033.84
2023-02-05T05:04:13.192Z,1033.84
2023-02-05T05:05:13.187Z,1033.86
2023-02-05T05:06:13.189Z,1033.86
2023-02-05T05:07:13.158Z,1033.85
2023-02-05T05:08:13.149Z,1033.86
2023-02-05T05:09:13.141Z,1033.87
2023-02-05T05:10:13.159Z,1033.88
2023-02-05T05:11:13.128Z,1033.88
2023-02-05T05:12:13.120Z,1033.89
2023-02-05T05:13:13.109Z,1033.88
2023-02-05T05:14:13.093Z,1033.87
2023-02-05T05:15:13.105Z,1033.86
2023-02-05T05:16:13.162Z,1033.86
2023-02-05T05:17:13.052Z,1033.87
2023-02-05T05:18:13.076Z,1033.89
2023-02-05T05:19:13.569Z,1033.88
2023-02-05T05:20:13.055Z,1033.87
2023-02-05T05:21:13.028Z,1033.84
2023-02-05T05:22:13.023Z,1033.81
2023-02-05T05:23:13.008Z,1033.80
2023-02-05T05:24:12.991Z,1033.78
2023-02-05T05:25:12.990Z,1033.78
2023-02-05T05:26:12.981Z,1033.77
2023-02-05T05:27:12.963Z,1033.79
2023-02-05T05:28:13.017Z,1033.82
2023-02-05T05:29:12.973Z,1033.84
2023-02-05T05:30:12.933Z,1033.86
2023-02-05T05:31:12.969Z,1033.88
2023-02-05T05:32:12.955Z,1033.90
2023-02-05T05:33:12.906Z,1033.92
2023-02-05T05:34:12.898Z,1033.92
2023-02-05T05:35:12.875Z,1033.92
2023-02-05T05:36:12.911Z,1033.92
2023-02-05T05:37:12.860Z,1033.93
2023-02-05T05:38:12.891Z,1033.94
2023-02-05T05:39:12.837Z,1033.97
2023-02-05T05:40:12.853Z,1034.00
2023-02-05T05:41:12.897Z,1034.01
2023-02-05T05:42:12.821Z,1034.01
2023-02-05T05:43:12.805Z,1034.02
2023-02-05T05:44:12.798Z,1034.03
2023-02-05T05:45:12.781Z,1034.04
2023-02-05T05:46:12.867Z,1034.05
2023-02-05T05:47:12.769Z,1034.07
2023-02-05T05:48:12.791Z,1034.11
2023-02-05T05:49:12.750Z,1034.15
2023-02-05T05:50:12.740Z,1034.17
2023-02-05T05:51:12.749Z,1034.18
2023-02-05T05:52:12.751Z,1034.18
2023-02-05T05:53:12.721Z,1034.18
2023-02-05T05:54:12.702Z,1034.18
2023-02-05T05:55:12.700Z,1034.18
2023-02-05T05:56:12.721Z,1034.18
2023-02-05T05:57:12.675Z,1034.17
2023-02-05T05:58:12.682Z,1034.17
2023-02-05T05:59:12.644Z,1034.16
2023-02-05T06:00:12.660Z,1034.15
2023-02-05T06:01:12.650Z,1034.13
2023-02-05T06:02:12.668Z,1034.12
2023-02-05T06:03:12.609Z,1034.12
2023-02-05T06:04:12.667Z,1034.10
2023-02-05T06:05:12.555Z,1034.07
2023-02-05T06:06:12.611Z,1034.03
2023-02-05T06:07:12.567Z,1034.00
2023-02-05T06:08:12.575Z,1033.98
2023-02-05T06:09:12.577Z,1033.96
2023-02-05T06:10:12.551Z,1033.97
2023-02-05T06:11:12.554Z,1033.97
2023-02-05T06:12:12.475Z,1033.98
2023-02-05T06:13:12.460Z,1033.98
2023-02-05T06:14:12.453Z,1033.97
2023-02-05T06:15:12.439Z,1033.95
2023-02-05T06:16:12.519Z,1033.94
2023-02-05T06:17:12.416Z,1033.94
2023-02-05T06:18:12.416Z,1033.94
2023-02-05T06:19:12.403Z,1033.96
2023-02-05T06:20:12.396Z,1033.97
2023-02-05T06:21:12.416Z,1033.99
2023-02-05T06:22:12.384Z,1033.99
2023-02-05T06:23:12.360Z,1033.99
2023-02-05T06:24:12.357Z,1033.99
2023-02-05T06:25:12.344Z,1033.98
2023-02-05T06:26:12.338Z,1033.96
2023-02-05T06:27:12.322Z,1033.94
2023-02-05T06:28:12.358Z,1033.92
2023-02-05T06:29:12.300Z,1033.92
2023-02-05T06:30:12.301Z,1033.92
2023-02-05T06:31:12.499Z,1033.93
2023-02-05T06:32:12.281Z,1033.94
2023-02-05T06:33:12.262Z,1033.95
2023-02-05T06:34:12.246Z,1033.96
2023-02-05T06:35:12.264Z,1033.98
2023-02-05T06:36:12.279Z,1033.98
2023-02-05T06:37:12.218Z,1033.96
2023-02-05T06:38:12.207Z,1033.93
2023-02-05T06:39:12.248Z,1033.89
2023-02-05T06:40:12.236Z,1033.86
2023-02-05T06:41:12.250Z,1033.85
2023-02-05T06:42:12.167Z,1033.87
2023-02-05T06:43:12.188Z,1033.89
2023-02-05T06:44:12.146Z,1033.92
2023-02-05T06:45:12.160Z,1033.95
2023-02-05T06:46:12.206Z,1033.96
2023-02-05T06:47:12.127Z,1033.97
2023-02-05T06:48:12.125Z,1033.96
2023-02-05T06:49:12.111Z,1033.95
2023-02-05T06:50:12.119Z,1033.94
2023-02-05T06:51:12.121Z,1033.95
2023-02-05T06:52:12.066Z,1033.96
2023-02-05T06:53:12.079Z,1033.97
2023-02-05T06:54:12.047Z,1033.95
2023-02-05T06:55:12.097Z,1033.95
2023-02-05T06:56:12.052Z,1033.94
2023-02-05T06:57:12.048Z,1033.94
2023-02-05T06:58:12.021Z,1033.94
2023-02-05T06:59:12.010Z,1033.94
2023-02-05T07:00:12.000Z,1033.95
2023-02-05T07:01:12.015Z,1033.96
2023-02-05T07:02:12.044Z,1033.97
2023-02-05T07:03:11.972Z,1033.99
2023-02-05T07:04:11.955Z,1034.00
2023-02-05T07:05:11.972Z,1034.01
2023-02-05T07:06:11.956Z,1034.02
2023-02-05T07:07:11.960Z,1034.04
2023-02-05T07:08:11.924Z,1034.06
2023-02-05T07:09:11.914Z,1034.10
2023-02-05T07:10:11.917Z,1034.11
2023-02-05T07:11:11.958Z,1034.11
2023-02-05T07:12:11.891Z,1034.11
2023-02-05T07:13:11.881Z,1034.11
2023-02-05T07:14:11.859Z,1034.11
2023-02-05T07:15:11.868Z,1034.12
2023-02-05T07:16:11.877Z,1034.14
2023-02-05T07:17:11.851Z,1034.15
2023-02-05T07:18:11.826Z,1034.16
2023-02-05T07:19:11.824Z,1034.17
2023-02-05T07:20:11.823Z,1034.16
2023-02-05T07:21:11.821Z,1034.14
2023-02-05T07:22:11.803Z,1034.11
2023-02-05T07:23:11.783Z,1034.08
2023-02-05T07:24:11.767Z,1034.05
2023-02-05T07:25:11.770Z,1034.02
2023-02-05T07:26:11.779Z,1034.01
2023-02-05T07:27:11.755Z,1034.01
2023-02-05T07:28:11.746Z,1034.01
2023-02-05T07:29:11.742Z,1034.02
2023-02-05T07:30:11.720Z,1034.02
2023-02-05T07:31:11.824Z,1034.01
2023-02-05T07:32:11.729Z,1034.01
2023-02-05T07:33:11.680Z,1034.01
2023-02-05T07:34:11.669Z,1034.00
2023-02-05T07:35:11.666Z,1033.99
2023-02-05T07:36:11.679Z,1033.98
2023-02-05T07:37:11.654Z,1033.97
2023-02-05T07:38:11.661Z,1033.98
2023-02-05T07:39:11.633Z,1034.00
2023-02-05T07:40:11.608Z,1034.02
2023-02-05T07:41:11.614Z,1034.04
2023-02-05T07:42:11.591Z,1034.06
2023-02-05T07:43:11.577Z,1034.06
2023-02-05T07:44:11.564Z,1034.03
2023-02-05T07:45:11.606Z,1034.00
2023-02-05T07:46:11.561Z,1034.00
2023-02-05T07:47:11.547Z,1033.99
2023-02-05T07:48:11.533Z,1033.99
2023-02-05T07:49:11.544Z,1034.00
2023-02-05T07:50:11.528Z,1034.01
2023-02-05T07:51:11.521Z,1033.99
2023-02-05T07:52:11.495Z,1033.96
2023-02-05T07:53:11.487Z,1033.92
2023-02-05T07:54:11.477Z,1033.88
2023-02-05T07:55:11.469Z,1033.86
2023-02-05T07:56:11.491Z,1033.84
2023-02-05T07:57:11.469Z,1033.83
2023-02-05T07:58:11.433Z,1033.82
2023-02-05T07:59:11.431Z,1033.80
2023-02-05T08:00:11.423Z,1033.80
2023-02-05T08:01:11.515Z,1033.80
2023-02-05T08:02:11.399Z,1033.81
2023-02-05T08:03:11.430Z,1033.82
2023-02-05T08:04:11.465Z,1033.80
2023-02-05T08:05:11.369Z,1033.78
2023-02-05T08:06:11.357Z,1033.76
2023-02-05T08:07:11.348Z,1033.74
2023-02-05T08:08:11.332Z,1033.71
2023-02-05T08:09:11.339Z,1033.68
2023-02-05T08:10:11.341Z,1033.67
2023-02-05T08:11:11.336Z,1033.68
2023-02-05T08:12:11.312Z,1033.70
2023-02-05T08:13:11.301Z,1033.73
2023-02-05T08:14:11.269Z,1033.76
2023-02-05T08:15:11.313Z,1033.78
2023-02-05T08:16:11.289Z,1033.80
2023-02-05T08:17:11.253Z,1033.82
2023-02-05T08:18:11.256Z,1033.85
2023-02-05T08:19:12.787Z,1033.86
2023-02-05T08:20:11.221Z,1033.86
2023-02-05T08:21:11.264Z,1033.84
2023-02-05T08:22:11.206Z,1033.81
2023-02-05T08:23:11.203Z,1033.78
2023-02-05T08:24:11.204Z,1033.75
2023-02-05T08:25:11.191Z,1033.73
2023-02-05T08:26:11.188Z,1033.71
2023-02-05T08:27:11.157Z,1033.69
2023-02-05T08:28:11.202Z,1033.67
2023-02-05T08:29:11.172Z,1033.66
2023-02-05T08:30:11.154Z,1033.65
2023-02-05T08:31:11.199Z,1033.65
2023-02-05T08:32:11.103Z,1033.65
2023-02-05T08:33:11.124Z,1033.66
2023-02-05T08:34:11.084Z,1033.67
2023-02-05T08:35:11.093Z,1033.66
2023-02-05T08:36:11.085Z,1033.66
2023-02-05T08:37:11.061Z,1033.64
2023-02-05T08:38:11.068Z,1033.64
2023-02-05T08:39:11.038Z,1033.64
2023-02-05T08:40:11.043Z,1033.65
2023-02-05T08:41:11.031Z,1033.65
2023-02-05T08:42:11.105Z,1033.66
2023-02-05T08:43:11.000Z,1033.65
2023-02-05T08:44:10.978Z,1033.64
2023-02-05T08:45:10.999Z,1033.63
2023-02-05T08:46:11.053Z,1033.61
2023-02-05T08:47:10.986Z,1033.60
2023-02-05T08:48:10.957Z,1033.58
2023-02-05T08:49:10.966Z,1033.57
2023-02-05T08:50:10.930Z,1033.59
2023-02-05T08:51:10.921Z,1033.60
2023-02-05T08:52:10.980Z,1033.61
2023-02-05T08:53:10.906Z,1033.63
2023-02-05T08:54:10.962Z,1033.64
2023-02-05T08:55:10.876Z,1033.66
2023-02-05T08:56:11.106Z,1033.67
2023-02-05T08:57:10.884Z,1033.70
2023-02-05T08:58:10.848Z,1033.70
2023-02-05T08:59:10.845Z,1033.71
2023-02-05T09:00:10.866Z,1033.69
2023-02-05T09:01:10.918Z,1033.67
2023-02-05T09:03:21.161Z,1033.64
2023-02-05T09:04:22.204Z,1033.63
2023-02-05T09:05:22.148Z,1033.62
2023-02-05T09:06:22.859Z,1033.59
2023-02-05T09:07:22.111Z,1033.57
2023-02-05T09:08:22.104Z,1033.55
2023-02-05T09:09:22.082Z,1033.55
2023-02-05T09:10:22.072Z,1033.55
2023-02-05T09:11:22.077Z,1033.56
2023-02-05T09:12:22.058Z,1033.57
2023-02-05T09:13:22.050Z,1033.57
2023-02-05T09:14:22.031Z,1033.58
2023-02-05T09:15:22.048Z,1033.57
2023-02-05T09:16:22.066Z,1033.57
2023-02-05T09:17:22.015Z,1033.58
2023-02-05T09:18:21.986Z,1033.62
2023-02-05T09:19:21.998Z,1033.64
2023-02-05T09:20:21.983Z,1033.65
2023-02-05T09:21:22.012Z,1033.65
2023-02-05T09:22:21.948Z,1033.65
2023-02-05T09:23:21.974Z,1033.63
2023-02-05T09:24:21.950Z,1033.63
2023-02-05T09:25:21.939Z,1033.61
2023-02-05T09:26:21.961Z,1033.60
2023-02-05T09:27:21.923Z,1033.61
2023-02-05T09:28:21.897Z,1033.62
2023-02-05T09:29:21.899Z,1033.63
2023-02-05T09:30:21.893Z,1033.63
2023-02-05T09:31:22.019Z,1033.65
2023-02-05T09:32:21.911Z,1033.65
2023-02-05T09:33:21.866Z,1033.65
2023-02-05T09:34:21.854Z,1033.65
2023-02-05T09:35:21.825Z,1033.65
2023-02-05T09:36:21.820Z,1033.65
2023-02-05T09:37:21.853Z,1033.66
2023-02-05T09:38:21.805Z,1033.66
2023-02-05T09:39:52.666Z,1033.67
2023-02-05T09:40:22.262Z,1033.67
2023-02-05T09:41:21.775Z,1033.69
2023-02-05T09:42:21.851Z,1033.70
2023-02-05T09:43:21.776Z,1033.72
2023-02-05T09:44:21.747Z,1033.72
2023-02-05T09:45:21.750Z,1033.71
2023-02-05T09:46:21.778Z,1033.70
2023-02-05T09:47:21.782Z,1033.69
2023-02-05T09:48:21.713Z,1033.67
2023-02-05T09:49:21.719Z,1033.65
2023-02-05T09:50:21.679Z,1033.65
2023-02-05T09:51:21.666Z,1033.66
2023-02-05T09:52:21.669Z,1033.68
2023-02-05T09:53:21.647Z,1033.69
2023-02-05T09:54:21.661Z,1033.69
2023-02-05T09:55:21.655Z,1033.68
2023-02-05T09:56:21.622Z,1033.66
2023-02-05T09:57:21.661Z,1033.65
2023-02-05T09:58:21.620Z,1033.62
2023-02-05T09:59:21.579Z,1033.61
2023-02-05T10:00:21.591Z,1033.61
2023-02-05T10:01:21.645Z,1033.61
2023-02-05T10:02:21.568Z,1033.62
2023-02-05T10:03:21.536Z,1033.60
2023-02-05T10:04:21.631Z,1033.58
2023-02-05T10:05:21.523Z,1033.58
2023-02-05T10:06:21.519Z,1033.57
2023-02-05T10:07:21.525Z,1033.55
2023-02-05T10:08:21.484Z,1033.54
2023-02-05T10:09:21.470Z,1033.53
2023-02-05T10:10:21.469Z,1033.51
2023-02-05T10:11:21.476Z,1033.51
2023-02-05T10:12:21.530Z,1033.51
2023-02-05T10:13:21.465Z,1033.50
2023-02-05T10:14:21.427Z,1033.47
2023-02-05T10:15:21.417Z,1033.46
2023-02-05T10:16:21.404Z,1033.46
2023-02-05T10:17:21.419Z,1033.46
2023-02-05T10:18:21.385Z,1033.46
2023-02-05T10:19:21.370Z,1033.47
2023-02-05T10:20:21.351Z,1033.48
2023-02-05T10:21:21.349Z,1033.47
2023-02-05T10:22:21.395Z,1033.48
2023-02-05T10:23:21.364Z,1033.47
2023-02-05T10:24:21.311Z,1033.48
2023-02-05T10:25:21.298Z,1033.47
2023-02-05T10:26:21.280Z,1033.45
2023-02-05T10:27:21.322Z,1033.41
2023-02-05T10:28:21.272Z,1033.39
2023-02-05T10:29:21.299Z,1033.36
2023-02-05T10:30:21.285Z,1033.35
2023-02-05T10:31:21.352Z,1033.33
2023-02-05T10:32:21.301Z,1033.32
2023-02-05T10:33:21.224Z,1033.31
2023-02-05T10:34:21.209Z,1033.29
2023-02-05T10:35:21.249Z,1033.26
2023-02-05T10:36:21.215Z,1033.25
2023-02-05T10:37:21.224Z,1033.21
2023-02-05T10:38:21.159Z,1033.18
2023-02-05T10:39:21.157Z,1033.18
2023-02-05T10:40:21.226Z,1033.17
2023-02-05T10:41:21.137Z,1033.16
2023-02-05T10:42:21.170Z,1033.13
2023-02-05T10:43:21.130Z,1033.14
2023-02-05T10:44:21.108Z,1033.15
2023-02-05T10:45:21.104Z,1033.15
2023-02-05T10:46:21.115Z,1033.15
2023-02-05T10:47:21.101Z,1033.16
2023-02-05T10:48:21.050Z,1033.16
2023-02-05T10:49:21.041Z,1033.16
2023-02-05T10:50:21.037Z,1033.15
2023-02-05T10:51:21.032Z,1033.12
2023-02-05T10:52:21.052Z,1033.11
2023-02-05T10:53:21.028Z,1033.09
2023-02-05T10:54:20.989Z,1033.08
2023-02-05T10:55:20.977Z,1033.06
2023-02-05T10:56:20.974Z,1033.07
2023-02-05T10:57:21.065Z,1033.08
2023-02-05T10:58:20.944Z,1033.07
2023-02-05T10:59:20.955Z,1033.07
2023-02-05T11:00:21.088Z,1033.04
2023-02-05T11:01:21.089Z,1033.08
2023-02-05T11:02:20.993Z,1033.02
2023-02-05T11:03:20.907Z,1032.99
2023-02-05T11:04:20.893Z,1032.98
2023-02-05T11:05:20.881Z,1032.95
2023-02-05T11:06:20.876Z,1032.95
2023-02-05T11:07:20.884Z,1032.95
2023-02-05T11:08:20.830Z,1032.95
2023-02-05T11:09:20.840Z,1032.97
2023-02-05T11:10:20.836Z,1032.95
2023-02-05T11:11:20.827Z,1032.94
2023-02-05T11:12:20.848Z,1032.94
2023-02-05T11:13:20.786Z,1032.93
2023-02-05T11:14:20.768Z,1032.92
2023-02-05T11:15:20.766Z,1032.93
2023-02-05T11:16:20.805Z,1032.92
2023-02-05T11:17:20.825Z,1032.93
2023-02-05T11:18:20.732Z,1032.94
2023-02-05T11:19:20.732Z,1032.95
2023-02-05T11:20:20.707Z,1032.98
2023-02-05T11:21:20.714Z,1033.01
2023-02-05T11:22:20.736Z,1033.04
2023-02-05T11:23:20.696Z,1033.04
2023-02-05T11:24:20.665Z,1033.05
2023-02-05T11:25:20.663Z,1033.04
2023-02-05T11:26:20.665Z,1033.05
2023-02-05T11:27:20.727Z,1033.04
2023-02-05T11:28:20.730Z,1033.05
2023-02-05T11:29:20.641Z,1033.04
2023-02-05T11:30:37.676Z,1033.02
2023-02-05T11:31:20.791Z,1033.00
2023-02-05T11:32:20.738Z,1033.02
2023-02-05T11:36:00.635Z,1032.95
2023-02-05T11:36:43.992Z,1032.96
2023-02-05T11:37:43.994Z,1032.95
2023-02-05T11:38:44.749Z,1032.95
2023-02-05T11:39:43.952Z,1032.93
2023-02-05T11:40:43.942Z,1032.93
2023-02-05T11:41:43.941Z,1032.91
2023-02-05T11:42:43.946Z,1032.89
2023-02-05T11:43:43.919Z,1032.90
2023-02-05T11:44:43.913Z,1032.91
2023-02-05T11:45:43.901Z,1032.91
2023-02-05T11:46:43.938Z,1032.89
2023-02-05T11:47:43.892Z,1032.88
2023-02-05T11:48:50.965Z,1032.88
2023-02-05T11:49:43.858Z,1032.87
2023-02-05T11:50:43.932Z,1032.88
2023-02-05T11:51:43.832Z,1032.87
2023-02-05T11:52:43.892Z,1032.87
2023-02-05T11:53:43.848Z,1032.88
2023-02-05T11:54:43.810Z,1032.89
2023-02-05T11:55:43.801Z,1032.90
2023-02-05T11:56:43.863Z,1032.92
2023-02-05T11:57:43.867Z,1032.94
2023-02-05T11:58:43.792Z,1032.93
2023-02-05T11:59:43.770Z,1032.92
2023-02-05T12:00:43.910Z,1032.92
2023-02-05T12:01:43.853Z,1032.91
2023-02-05T12:02:43.792Z,1032.91
2023-02-05T12:03:43.741Z,1032.93
2023-02-05T12:04:43.688Z,1032.93
2023-02-05T12:05:43.688Z,1032.92
2023-02-05T12:06:43.679Z,1032.92
2023-02-05T12:07:43.682Z,1032.92
2023-02-05T12:08:43.662Z,1032.91